Time;durP1;ratioP1;P1;durP2;ratioP2;P2;SDS_P1;SDS_P2;PMS_P1;PMS_P2;Temp;Humidity;BMP_temperature;BMP_pressure;BME280_temperature;BME280_humidity;BME280_pressure;Samples;Min_cycle;Max_cycle;Signal;HPM_P1;HPM_P2
2021/03/03 00:01:48;;;;;;;92.37;37.03;;;;;;;7.70;68.14;102055.44;4469017;26;20101;-75
2021/03/03 00:04:14;;;;;;;94.82;37.40;;;;;;;7.48;68.36;102056.41;4395712;32;20097;-75
2021/03/03 00:06:39;;;;;;;100.60;38.47;;;;;;;7.54;69.11;102057.66;4389446;32;20371;-77
2021/03/03 00:09:05;;;;;;;100.18;37.28;;;;;;;7.63;68.91;102052.56;4418622;32;20041;-75
2021/03/03 00:11:31;;;;;;;99.75;37.00;;;;;;;7.57;68.59;102054.91;4413911;32;20038;-75
2021/03/03 00:13:57;;;;;;;97.00;36.08;;;;;;;7.45;69.15;102060.78;4394759;32;20481;-78
2021/03/03 00:16:22;;;;;;;95.55;38.35;;;;;;;7.59;69.22;102044.13;4400463;32;20112;-75
2021/03/03 00:18:48;;;;;;;100.95;36.63;;;;;;;7.52;68.74;102049.66;4406627;32;20029;-75
2021/03/03 00:21:14;;;;;;;94.55;35.22;;;;;;;7.55;68.78;102053.69;4413563;32;20072;-75
2021/03/03 00:23:40;;;;;;;95.75;38.15;;;;;;;7.60;69.21;102042.12;4404217;32;20076;-77
2021/03/03 00:26:05;;;;;;;100.50;37.75;;;;;;;7.69;69.16;102043.41;4405657;32;20026;-76
2021/03/03 00:28:31;;;;;;;97.20;37.60;;;;;;;7.79;68.68;102041.88;4404366;32;20129;-76
2021/03/03 00:30:56;;;;;;;97.93;37.50;;;;;;;7.70;68.63;102047.81;4402897;32;20097;-75
2021/03/03 00:33:22;;;;;;;99.00;38.10;;;;;;;7.69;68.40;102042.59;4404429;32;20096;-75
2021/03/03 00:35:48;;;;;;;100.62;36.70;;;;;;;7.66;68.38;102041.38;4406215;32;20056;-75
2021/03/03 00:38:13;;;;;;;97.32;37.67;;;;;;;7.69;68.70;102040.59;4405075;32;20413;-75
2021/03/03 00:40:39;;;;;;;97.35;38.03;;;;;;;7.68;68.69;102052.22;4393991;32;20031;-77
2021/03/03 00:43:05;;;;;;;103.87;37.70;;;;;;;7.66;68.88;102043.37;4390959;32;20027;-75
2021/03/03 00:45:30;;;;;;;104.10;38.83;;;;;;;7.78;68.48;102045.88;4407037;32;20066;-75
2021/03/03 00:47:56;;;;;;;93.85;36.90;;;;;;;7.85;68.17;102043.94;4404057;32;20041;-76
2021/03/03 00:50:22;;;;;;;95.62;38.03;;;;;;;7.91;68.00;102045.19;4403526;32;20030;-75
2021/03/03 00:52:48;;;;;;;100.40;38.13;;;;;;;7.84;67.57;102047.13;4403725;32;20088;-75
2021/03/03 00:55:14;;;;;;;99.05;37.88;;;;;;;7.78;67.76;102051.47;4406593;32;20469;-76
2021/03/03 00:57:40;;;;;;;102.78;39.08;;;;;;;7.76;68.23;102048.25;4404138;32;20042;-76
2021/03/03 01:00:06;;;;;;;98.97;39.28;;;;;;;7.69;68.16;102037.00;4400919;32;20047;-76
2021/03/03 01:02:32;;;;;;;102.18;37.50;;;;;;;7.57;68.64;102040.09;4407608;32;20050;-76
2021/03/03 01:04:58;;;;;;;101.87;37.20;;;;;;;7.46;68.87;102047.59;4403461;32;20110;-76
2021/03/03 01:07:24;;;;;;;95.70;37.25;;;;;;;7.64;68.29;102038.16;4404822;32;20456;-76
2021/03/03 01:09:49;;;;;;;106.53;38.47;;;;;;;7.51;68.73;102042.44;4411598;32;20126;-76
2021/03/03 01:12:15;;;;;;;99.15;37.63;;;;;;;7.49;68.95;102036.41;4419886;32;20088;-76
2021/03/03 01:14:41;;;;;;;94.32;37.08;;;;;;;7.47;68.90;102040.81;4403299;32;20056;-75
2021/03/03 01:17:06;;;;;;;103.12;38.40;;;;;;;7.52;68.84;102037.66;4408104;32;20121;-76
2021/03/03 01:19:32;;;;;;;106.18;39.10;;;;;;;7.48;68.95;102032.00;4406921;32;20074;-76
2021/03/03 01:21:58;;;;;;;101.03;38.38;;;;;;;7.47;69.01;102040.81;4408311;32;20112;-76
2021/03/03 01:24:24;;;;;;;97.00;37.30;;;;;;;7.43;69.18;102040.75;4411799;32;20117;-76
2021/03/03 01:26:49;;;;;;;104.22;39.78;;;;;;;7.41;69.38;102031.97;4410859;32;20060;-76
2021/03/03 01:29:15;;;;;;;96.35;36.70;;;;;;;7.53;68.77;102039.25;4412940;32;20064;-76
2021/03/03 01:31:41;;;;;;;95.82;36.55;;;;;;;7.56;67.69;102030.09;4393343;32;20076;-76
2021/03/03 01:34:06;;;;;;;93.72;36.42;;;;;;;7.37;68.57;102027.50;4391235;32;20113;-76
2021/03/03 01:36:32;;;;;;;98.50;36.90;;;;;;;7.39;69.01;102028.72;4393134;32;20046;-76
2021/03/03 01:38:57;;;;;;;100.05;38.80;;;;;;;7.34;68.91;102031.09;4396058;32;20113;-76
2021/03/03 01:41:24;;;;;;;95.90;36.67;;;;;;;7.32;68.99;102036.25;4412674;32;20034;-76
2021/03/03 01:43:50;;;;;;;99.70;38.15;;;;;;;7.36;69.02;102023.91;4413606;32;20038;-76
2021/03/03 01:46:15;;;;;;;98.80;38.88;;;;;;;7.29;69.16;102023.03;4419721;32;20050;-76
2021/03/03 01:48:41;;;;;;;111.47;37.42;;;;;;;7.05;69.71;102020.78;4407343;32;20090;-76
2021/03/03 01:51:07;;;;;;;105.00;38.72;;;;;;;7.16;69.51;102025.31;4406704;32;20064;-76
2021/03/03 01:53:33;;;;;;;102.93;39.05;;;;;;;6.95;70.38;102021.47;4408041;32;20085;-76
2021/03/03 01:55:58;;;;;;;105.55;37.42;;;;;;;6.87;70.05;102022.59;4423005;32;20464;-76
2021/03/03 01:58:24;;;;;;;112.35;39.13;;;;;;;6.38;72.23;102017.16;4413781;32;20412;-75
2021/03/03 02:00:50;;;;;;;105.72;37.97;;;;;;;6.21;73.56;102017.75;4407289;32;20030;-76
2021/03/03 02:03:17;;;;;;;104.90;37.20;;;;;;;6.10;74.07;102009.22;4399635;32;20447;-76
2021/03/03 02:05:43;;;;;;;103.22;36.72;;;;;;;6.37;73.26;102018.38;4392575;32;20038;-76
2021/03/03 02:13:36;;;;;;;98.82;36.30;;;;;;;6.67;74.12;102029.53;3992259;32;15030694;-74
2021/03/03 02:16:05;;;;;;;103.10;36.25;;;;;;;6.67;74.12;102029.53;4439924;32;20081;-74
2021/03/03 02:18:33;;;;;;;102.18;35.80;;;;;;;6.00;75.63;102012.66;4447546;32;20038;-74
2021/03/03 02:21:25;;;;;;;105.32;35.20;;;;;;;6.19;75.11;102016.53;4433729;32;20037;-75
2021/03/03 02:26:36;;;;;;;99.18;34.58;;;;;;;7.09;72.92;102008.44;3998718;32;15022925;-77
2021/03/03 02:29:06;;;;;;;97.93;35.08;;;;;;;7.09;72.92;102008.44;4448331;32;20068;-77
2021/03/03 02:31:34;;;;;;;98.35;36.70;;;;;;;6.86;73.09;102005.00;4447990;32;20068;-77
2021/03/03 02:34:02;;;;;;;95.87;35.25;;;;;;;6.94;72.20;101991.88;4448373;32;20021;-76
2021/03/03 02:36:29;;;;;;;104.28;36.63;;;;;;;7.06;71.76;101997.22;4447081;32;20112;-77
2021/03/03 02:38:55;;;;;;;94.10;34.40;;;;;;;7.15;71.18;101997.69;4446731;32;20030;-76
2021/03/03 02:41:21;;;;;;;93.15;33.65;;;;;;;7.29;70.91;101998.63;4447632;32;20026;-76
2021/03/03 02:43:47;;;;;;;89.25;34.45;;;;;;;7.38;70.37;101989.91;4448945;32;20106;-77
2021/03/03 02:46:14;;;;;;;93.22;34.28;;;;;;;7.38;69.49;101990.72;4448439;32;20085;-77
2021/03/03 02:48:40;;;;;;;95.35;35.70;;;;;;;7.54;69.50;101991.25;4447365;32;20499;-77
2021/03/03 02:51:06;;;;;;;96.80;35.95;;;;;;;7.55;69.29;101972.47;4447841;32;20090;-74
2021/03/03 02:53:32;;;;;;;92.90;36.53;;;;;;;7.61;68.87;101984.91;4447705;32;20103;-77
2021/03/03 02:55:58;;;;;;;100.45;36.42;;;;;;;7.55;68.51;101975.25;4446551;32;20022;-76
2021/03/03 02:58:24;;;;;;;101.30;36.70;;;;;;;7.52;68.87;101968.41;4448293;32;20142;-76
2021/03/03 03:00:53;;;;;;;98.72;36.28;;;;;;;7.41;68.66;101970.34;4448771;32;20051;-76
2021/03/03 03:08:37;;;;;;;98.62;36.60;;;;;;;7.71;68.71;101965.34;4026136;31;15016951;-77
2021/03/03 03:11:04;;;;;;;98.18;35.78;;;;;;;7.71;68.71;101965.34;4480727;32;20071;-75
2021/03/03 03:13:33;;;;;;;98.55;37.33;;;;;;;7.28;69.64;101971.03;4463118;32;20368;-75
2021/03/03 03:16:00;;;;;;;102.05;38.35;;;;;;;7.25;69.31;101969.81;4457088;32;20262;-75
2021/03/03 03:18:34;;;;;;;103.68;37.70;;;;;;;7.11;69.44;101958.47;4462387;32;20041;-75
2021/03/03 03:21:01;;;;;;;98.62;36.88;;;;;;;6.85;70.97;101969.81;4479619;32;20040;-76
2021/03/03 03:23:28;;;;;;;109.80;38.97;;;;;;;6.74;71.81;101966.06;4479394;32;20025;-76
2021/03/03 03:25:55;;;;;;;115.55;39.22;;;;;;;6.78;71.69;101960.53;4466829;32;20056;-75
2021/03/03 03:28:22;;;;;;;119.55;40.25;;;;;;;6.83;70.97;101960.16;4464181;32;20049;-75
2021/03/03 03:30:50;;;;;;;111.60;38.58;;;;;;;6.86;71.00;101962.19;4464452;32;20025;-76
2021/03/03 03:33:16;;;;;;;124.55;40.45;;;;;;;6.42;71.82;101962.13;4464244;32;20068;-76
2021/03/03 03:35:42;;;;;;;119.50;39.92;;;;;;;6.41;73.14;101960.50;4462622;32;20051;-75
2021/03/03 03:38:08;;;;;;;126.03;41.53;;;;;;;6.47;72.75;101949.78;4460768;32;20022;-75
2021/03/03 03:40:33;;;;;;;124.47;41.17;;;;;;;6.23;73.01;101948.31;4453175;32;20465;-75
2021/03/03 03:43:00;;;;;;;132.75;42.13;;;;;;;6.03;74.05;101956.03;4462624;32;20037;-75
2021/03/03 03:45:27;;;;;;;128.25;41.90;;;;;;;5.90;74.97;101957.41;4462906;32;20060;-76
2021/03/03 03:47:55;;;;;;;125.05;40.80;;;;;;;5.61;76.22;101960.13;4477234;32;20166;-76
2021/03/03 03:50:22;;;;;;;123.07;40.53;;;;;;;5.82;76.06;101966.88;4479428;32;20466;-75
2021/03/03 03:52:53;;;;;;;135.82;44.40;;;;;;;5.98;75.49;101975.09;4470643;32;20052;-75
2021/03/03 03:55:19;;;;;;;137.20;44.40;;;;;;;5.68;75.85;101963.84;4462711;32;20056;-75
2021/03/03 03:57:48;;;;;;;146.77;44.53;;;;;;;5.82;76.20;101955.72;4462541;32;20033;-76
2021/03/03 04:00:16;;;;;;;136.82;43.30;;;;;;;5.90;75.70;101960.22;4462318;32;20402;-75
2021/03/03 04:02:42;;;;;;;130.00;42.58;;;;;;;5.86;75.50;101953.78;4448202;32;20041;-76
2021/03/03 04:05:09;;;;;;;148.45;45.20;;;;;;;5.70;75.28;101955.09;4459013;32;20094;-75
2021/03/03 04:07:35;;;;;;;129.65;42.38;;;;;;;5.90;75.19;101956.63;4454827;32;20071;-75
2021/03/03 04:10:00;;;;;;;120.03;38.88;;;;;;;5.98;74.89;101956.34;4456651;32;20037;-76
2021/03/03 04:12:26;;;;;;;124.32;39.67;;;;;;;6.12;74.21;101953.75;4448699;32;20075;-76
2021/03/03 04:14:52;;;;;;;98.85;35.42;;;;;;;6.18;74.09;101953.41;4453910;32;20331;-76
2021/03/03 04:17:17;;;;;;;112.25;38.25;;;;;;;6.23;73.68;101961.47;4463638;32;20029;-75
2021/03/03 04:19:43;;;;;;;115.05;39.90;;;;;;;6.13;73.40;101962.91;4453885;32;20101;-75
2021/03/03 04:22:08;;;;;;;110.15;36.55;;;;;;;6.12;73.53;101961.31;4443223;32;20584;-76
2021/03/03 04:24:34;;;;;;;114.55;37.28;;;;;;;6.28;73.94;101955.53;4439436;32;20086;-75
2021/03/03 04:27:00;;;;;;;113.93;37.42;;;;;;;6.34;73.44;101954.00;4438109;32;20066;-75
2021/03/03 04:29:26;;;;;;;108.72;35.95;;;;;;;6.34;72.93;101951.22;4438053;32;20055;-75
2021/03/03 04:31:51;;;;;;;113.10;38.88;;;;;;;6.37;73.07;101947.66;4438161;32;20068;-75
2021/03/03 04:34:17;;;;;;;114.03;37.35;;;;;;;6.35;72.40;101950.81;4437516;32;20041;-75
2021/03/03 04:36:43;;;;;;;98.93;33.97;;;;;;;6.36;72.89;101952.47;4445277;32;20045;-76
2021/03/03 04:39:09;;;;;;;104.70;33.75;;;;;;;6.34;71.89;101963.19;4444043;32;20135;-76
2021/03/03 04:41:34;;;;;;;99.75;33.83;;;;;;;6.47;72.27;101963.78;4423359;32;20100;-76
2021/03/03 04:44:00;;;;;;;106.55;35.55;;;;;;;6.51;71.95;101959.84;4437472;32;20041;-76
2021/03/03 04:46:26;;;;;;;101.03;34.67;;;;;;;6.40;71.55;101944.91;4436439;32;20025;-76
2021/03/03 04:48:51;;;;;;;101.70;33.85;;;;;;;6.31;72.08;101954.75;4437635;32;20045;-76
2021/03/03 04:51:17;;;;;;;108.40;34.65;;;;;;;6.27;73.20;101963.13;4444276;32;20041;-76
2021/03/03 04:53:42;;;;;;;114.22;35.25;;;;;;;6.18;73.00;101961.78;4452372;32;20102;-76
2021/03/03 04:56:08;;;;;;;113.05;36.13;;;;;;;5.98;73.70;101958.31;4448614;32;20081;-76
2021/03/03 04:58:34;;;;;;;106.65;35.40;;;;;;;5.82;74.43;101961.31;4437721;32;20416;-76
2021/03/03 05:01:00;;;;;;;113.97;35.67;;;;;;;6.04;74.96;101966.00;4444824;32;20093;-75
2021/03/03 05:03:25;;;;;;;116.07;34.95;;;;;;;5.98;73.92;101961.94;4467387;32;20068;-76
2021/03/03 05:05:51;;;;;;;115.68;35.75;;;;;;;6.05;74.44;101959.22;4463578;32;20065;-76
2021/03/03 05:08:17;;;;;;;103.57;35.15;;;;;;;6.07;74.18;101964.44;4450267;32;20042;-76
2021/03/03 05:10:42;;;;;;;108.90;34.65;;;;;;;6.09;74.21;101954.50;4451345;32;20057;-76
2021/03/03 05:13:16;;;;;;;109.75;35.58;;;;;;;6.22;74.55;101962.66;4437331;32;20069;-76
2021/03/03 05:15:42;;;;;;;109.30;37.25;;;;;;;6.36;74.39;101962.81;4443012;32;20060;-76
2021/03/03 05:18:10;;;;;;;115.25;36.58;;;;;;;6.35;73.64;101961.22;4437197;32;20090;-76
2021/03/03 05:20:37;;;;;;;115.65;36.83;;;;;;;6.37;73.51;101956.84;4436520;32;20034;-76
2021/03/03 05:23:03;;;;;;;114.57;37.72;;;;;;;6.43;73.30;101949.75;4435685;32;20037;-76
2021/03/03 05:25:29;;;;;;;116.93;38.08;;;;;;;6.45;73.07;101943.75;4437274;32;20492;-76
2021/03/03 05:27:56;;;;;;;119.15;38.30;;;;;;;6.50;72.74;101949.03;4440689;32;20037;-76
2021/03/03 05:30:23;;;;;;;103.93;35.17;;;;;;;6.45;72.04;101938.16;4439074;32;20102;-76
2021/03/03 05:32:49;;;;;;;111.32;37.08;;;;;;;6.54;72.18;101942.28;4451583;32;20480;-76
2021/03/03 05:35:15;;;;;;;108.97;35.75;;;;;;;6.51;72.37;101945.84;4452394;32;20068;-76
2021/03/03 05:37:41;;;;;;;108.57;37.67;;;;;;;6.58;72.36;101940.34;4441677;32;20046;-76
2021/03/03 05:40:07;;;;;;;110.15;36.75;;;;;;;6.53;72.51;101937.88;4436766;32;20110;-77
2021/03/03 05:42:35;;;;;;;112.75;37.10;;;;;;;6.48;72.38;101943.81;4436439;32;20042;-76
2021/03/03 05:45:03;;;;;;;105.57;36.13;;;;;;;6.48;72.76;101938.22;4436992;32;20093;-75
2021/03/03 05:47:34;;;;;;;112.82;37.33;;;;;;;6.52;73.18;101933.47;4430768;32;20493;-76
2021/03/03 05:50:01;;;;;;;113.37;37.42;;;;;;;6.60;72.65;101942.75;4437209;32;20120;-76
2021/03/03 05:52:28;;;;;;;108.45;37.10;;;;;;;6.52;72.47;101950.25;4435121;32;20038;-76
2021/03/03 05:54:56;;;;;;;107.87;36.90;;;;;;;6.66;72.69;101949.59;4437181;32;20056;-76
2021/03/03 05:57:21;;;;;;;115.40;37.78;;;;;;;6.67;72.12;101940.03;4445078;32;20063;-76
2021/03/03 05:59:47;;;;;;;133.93;43.67;;;;;;;6.66;72.50;101933.59;4440739;32;20053;-76
2021/03/03 06:02:14;;;;;;;127.60;40.55;;;;;;;6.71;71.98;101932.47;4451810;32;20029;-76
2021/03/03 06:04:40;;;;;;;120.28;38.15;;;;;;;6.70;72.09;101928.06;4438518;32;20037;-77
2021/03/03 06:07:06;;;;;;;123.50;40.70;;;;;;;6.64;72.03;101935.19;4435711;32;20041;-76
2021/03/03 06:09:32;;;;;;;120.87;40.90;;;;;;;6.59;72.06;101930.75;4447534;32;20067;-76
2021/03/03 06:11:58;;;;;;;129.23;41.63;;;;;;;6.70;72.18;101928.06;4451802;32;20041;-76
2021/03/03 06:14:23;;;;;;;132.82;43.38;;;;;;;6.71;71.95;101924.06;4439299;32;20034;-76
2021/03/03 06:16:49;;;;;;;131.12;41.60;;;;;;;6.71;72.11;101919.28;4456135;32;20097;-76
2021/03/03 06:19:16;;;;;;;138.27;42.88;;;;;;;6.71;71.61;101915.69;4467322;32;20025;-77
2021/03/03 06:21:42;;;;;;;124.35;41.63;;;;;;;6.83;72.33;101923.78;4466668;32;20055;-76
2021/03/03 06:24:10;;;;;;;127.35;43.17;;;;;;;6.66;71.84;101935.63;4453462;32;20033;-77
2021/03/03 06:26:54;;;;;;;137.05;45.20;;;;;;;6.73;72.23;101930.09;4450024;32;20033;-76
2021/03/03 06:29:19;;;;;;;145.27;46.53;;;;;;;6.76;72.42;101926.53;4435278;32;20090;-76
2021/03/03 06:31:46;;;;;;;139.68;46.37;;;;;;;6.75;72.89;101930.53;4434848;32;20109;-76
2021/03/03 06:39:35;;;;;;;132.43;43.53;;;;;;;7.33;71.41;101940.66;3985023;32;15022648;-77
2021/03/03 06:42:03;;;;;;;129.48;42.50;;;;;;;7.33;71.41;101940.66;4439074;32;20318;-76
2021/03/03 06:44:47;;;;;;;142.05;44.70;;;;;;;6.93;72.06;101937.12;4447621;32;20052;-76
2021/03/03 06:47:12;;;;;;;150.98;46.78;;;;;;;6.97;71.68;101946.34;4443456;32;20094;-75
2021/03/03 06:49:39;;;;;;;149.40;46.45;;;;;;;6.89;71.56;101942.66;4448568;32;20040;-75
2021/03/03 06:52:05;;;;;;;156.65;47.70;;;;;;;6.86;71.69;101943.44;4449426;32;20033;-76
2021/03/03 06:54:31;;;;;;;152.35;45.92;;;;;;;6.85;71.80;101938.22;4447664;32;20120;-76
2021/03/03 06:56:58;;;;;;;145.27;46.05;;;;;;;6.82;71.99;101941.78;4447106;32;20085;-76
2021/03/03 07:02:17;;;;;;;150.73;47.75;;;;;;;7.30;70.57;101947.03;3978969;32;15022570;-77
2021/03/03 07:04:44;;;;;;;157.60;48.47;;;;;;;7.30;70.57;101947.03;4434535;32;20360;-78
2021/03/03 07:09:49;;;;;;;197.45;67.18;;;;;;;7.14;71.51;101954.91;3988352;32;15025949;-78
2021/03/03 07:12:18;;;;;;;199.18;57.62;;;;;;;7.14;71.51;101954.91;4431409;32;20342;-78
2021/03/03 07:14:45;;;;;;;185.37;57.30;;;;;;;6.73;72.21;101963.66;4432896;32;20082;-77
2021/03/03 07:17:19;;;;;;;194.75;55.17;;;;;;;6.74;72.37;101963.28;4433997;32;20316;-75
2021/03/03 07:22:31;;;;;;;179.12;54.00;;;;;;;7.17;71.40;101964.50;3961986;32;15724488;-77
2021/03/03 07:27:38;;;;;;;166.62;51.63;;;;;;;7.26;71.10;101976.19;3994506;32;15024323;-75
2021/03/03 07:30:09;;;;;;;167.52;49.53;;;;;;;7.26;71.10;101976.19;4439728;32;20056;-75
2021/03/03 07:32:36;;;;;;;173.87;52.47;;;;;;;6.79;71.32;101971.34;4434485;32;20536;-75
2021/03/03 07:35:03;;;;;;;159.43;48.55;;;;;;;6.75;71.61;101978.87;4432238;32;20382;-77
2021/03/03 07:37:34;;;;;;;164.10;52.25;;;;;;;6.63;71.70;101973.53;4435263;32;20409;-79
2021/03/03 07:40:09;;;;;;;170.23;48.47;;;;;;;6.74;72.11;101980.06;4444292;32;20026;-79
2021/03/03 07:42:36;;;;;;;143.85;43.33;;;;;;;6.82;71.66;101978.16;4444482;32;20492;-79
2021/03/03 07:45:08;;;;;;;156.00;46.22;;;;;;;6.82;71.47;101983.75;4437493;32;20414;-80
2021/03/03 07:47:36;;;;;;;170.05;47.90;;;;;;;6.83;71.45;101979.75;4442434;32;20116;-79
2021/03/03 07:52:50;;;;;;;161.07;48.33;;;;;;;7.51;71.14;101986.44;4026464;31;15017693;-78
2021/03/03 07:55:16;;;;;;;167.80;47.95;;;;;;;7.51;71.14;101986.44;4477384;32;20131;-78
2021/03/03 07:57:48;;;;;;;169.60;49.83;;;;;;;7.13;71.07;101983.28;4474192;32;20429;-79
2021/03/03 08:00:20;;;;;;;150.95;44.38;;;;;;;7.19;71.04;101979.75;4471900;32;20037;-78
2021/03/03 08:02:49;;;;;;;158.20;42.55;;;;;;;7.26;70.90;101988.22;4453082;32;20059;-78
2021/03/03 08:05:34;;;;;;;127.93;40.65;;;;;;;7.26;70.57;101984.59;4452066;32;20017;-78
2021/03/03 08:08:25;;;;;;;144.10;42.70;;;;;;;7.39;70.46;101997.91;4454943;32;20433;-79
2021/03/03 08:13:39;;;;;;;125.57;40.92;;;;;;;7.82;69.49;102004.66;3985885;32;15026988;-77
2021/03/03 08:16:06;;;;;;;129.23;40.30;;;;;;;7.82;69.49;102004.66;4436124;32;20033;-77
2021/03/03 08:23:59;;;;;;;131.37;42.22;;;;;;;7.82;70.06;101993.47;3996884;31;15015187;-92
2021/03/03 08:29:18;;;;;;;137.15;49.78;;;;;;;7.82;69.98;101990.66;3975445;32;15029374;-77
2021/03/03 08:31:44;;;;;;;139.10;43.63;;;;;;;7.82;69.98;101990.66;4428774;32;20452;-77
2021/03/03 08:34:11;;;;;;;129.57;41.17;;;;;;;7.25;70.01;101992.22;4430751;32;20427;-77
2021/03/03 08:41:47;;;;;;;137.20;42.78;;;;;;;7.75;69.73;101988.63;3993859;32;15025235;-81
2021/03/03 08:44:15;;;;;;;134.23;40.35;;;;;;;7.75;69.73;101988.63;4436461;32;20052;-80
2021/03/03 08:52:05;;;;;;;146.30;43.27;;;;;;;7.97;69.53;101992.34;4004200;31;15020387;-80
2021/03/03 08:57:31;;;;;;;156.93;43.28;;;;;;;7.96;69.59;102001.97;3983810;32;15102629;-81
2021/03/03 08:59:57;;;;;;;145.10;42.80;;;;;;;7.96;69.59;102001.97;4438610;32;20676;-78
2021/03/03 09:02:26;;;;;;;144.85;41.35;;;;;;;7.47;70.34;101994.00;4422403;32;20054;-79
2021/03/03 09:04:54;;;;;;;146.52;41.33;;;;;;;7.46;69.92;101994.38;4421875;32;20030;-78
2021/03/03 09:07:22;;;;;;;147.02;40.90;;;;;;;7.48;70.02;101994.78;4421518;32;20141;-79
2021/03/03 09:12:28;;;;;;;144.93;40.15;;;;;;;7.60;69.35;101997.28;3983162;32;15025164;-80
2021/03/03 09:14:56;;;;;;;138.88;39.92;;;;;;;7.60;69.80;101992.50;4436734;32;20089;-79
2021/03/03 09:17:25;;;;;;;137.25;39.85;;;;;;;7.66;69.29;101987.34;4419784;32;20073;-77
2021/03/03 09:19:52;;;;;;;128.48;38.35;;;;;;;7.67;69.30;101988.97;4437804;32;20097;-77
2021/03/03 09:24:55;;;;;;;127.87;38.47;;;;;;;8.16;67.83;101978.06;4010367;31;15017559;-78
2021/03/03 09:27:23;;;;;;;126.32;36.10;;;;;;;8.16;67.83;101978.06;4461869;32;20139;-78
2021/03/03 09:29:49;;;;;;;120.00;36.55;;;;;;;7.22;69.81;101983.75;4462025;32;20106;-79
2021/03/03 09:32:21;;;;;;;122.60;36.58;;;;;;;7.36;70.15;101984.69;4461566;32;20045;-79
2021/03/03 09:37:35;;;;;;;124.33;37.57;;;;;;;7.91;68.81;101982.72;3998334;31;15017982;-80
2021/03/03 09:40:07;;;;;;;138.68;39.78;;;;;;;7.91;68.81;101982.72;4441690;32;20429;-82
2021/03/03 09:42:38;;;;;;;138.55;41.65;;;;;;;7.56;69.94;101980.47;4460269;32;20029;-79
2021/03/03 09:45:05;;;;;;;141.50;41.90;;;;;;;7.71;69.70;101972.97;4444009;32;20029;-82
2021/03/03 09:47:35;;;;;;;136.70;38.90;;;;;;;7.80;68.79;101979.03;4444915;32;20049;-79
2021/03/03 09:50:11;;;;;;;149.80;41.70;;;;;;;7.82;67.99;101977.47;4457462;32;20455;-80
2021/03/03 09:52:55;;;;;;;151.15;42.25;;;;;;;7.77;67.88;101974.22;4460335;32;20036;-78
2021/03/03 09:55:22;;;;;;;162.85;43.45;;;;;;;7.81;68.02;101981.47;4457410;32;20133;-79
2021/03/03 09:57:50;;;;;;;164.00;43.90;;;;;;;7.82;68.17;101980.25;4459067;32;20049;-83
2021/03/03 10:00:18;;;;;;;146.37;41.67;;;;;;;7.70;68.80;101974.19;4461558;32;20072;-79
2021/03/03 10:02:48;;;;;;;134.20;39.75;;;;;;;7.80;68.83;101970.62;4459236;32;20040;-78
2021/03/03 10:07:58;;;;;;;146.82;40.45;;;;;;;8.45;67.32;101968.63;3991523;32;15030453;-79
2021/03/03 10:10:26;;;;;;;128.62;35.80;;;;;;;8.45;67.32;101968.63;4437539;32;20037;-81
2021/03/03 10:12:53;;;;;;;128.02;38.67;;;;;;;8.11;67.19;101956.00;4431642;32;20038;-78
2021/03/03 10:15:22;;;;;;;130.82;39.38;;;;;;;8.25;67.27;101969.34;4434521;32;20339;-79
2021/03/03 10:17:54;;;;;;;133.12;38.85;;;;;;;8.29;66.45;101970.16;4442811;32;20077;-79
2021/03/03 10:20:44;;;;;;;139.43;40.12;;;;;;;8.28;67.22;101963.72;4432542;32;20128;-81
2021/03/03 10:25:52;;;;;;;140.88;38.95;;;;;;;8.40;67.19;101966.19;3980156;32;15027471;-80
2021/03/03 10:28:20;;;;;;;138.95;39.00;;;;;;;8.38;67.16;101965.81;4435490;32;20056;-78
2021/03/03 10:30:49;;;;;;;142.30;40.97;;;;;;;8.46;66.92;101969.41;4434380;32;20045;-78
2021/03/03 10:33:36;;;;;;;148.00;41.30;;;;;;;8.57;66.61;101964.66;4441039;32;20141;-80
2021/03/03 10:36:05;;;;;;;158.23;40.53;;;;;;;8.69;66.03;101962.31;4437284;32;20041;-78
2021/03/03 10:38:35;;;;;;;148.07;41.80;;;;;;;8.77;65.79;101966.72;4433154;32;20102;-79
2021/03/03 10:41:04;;;;;;;145.10;42.58;;;;;;;8.49;65.05;101968.63;4438246;32;20178;-78
2021/03/03 10:43:30;;;;;;;163.37;45.12;;;;;;;8.35;66.13;101980.62;4438004;32;20313;-79
2021/03/03 10:48:47;;;;;;;161.88;43.65;;;;;;;8.28;66.67;101968.56;3986387;32;15025467;-80
2021/03/03 10:51:16;;;;;;;167.37;45.45;;;;;;;8.36;66.59;101972.97;4440741;32;20435;-80
2021/03/03 10:59:07;;;;;;;162.68;45.50;;;;;;;9.10;64.77;101968.41;3997626;31;15016616;-78
2021/03/03 11:04:19;;;;;;;164.93;45.28;;;;;;;9.28;63.47;101970.03;3986143;32;15023107;-79
2021/03/03 11:06:45;;;;;;;177.12;49.63;;;;;;;9.28;63.47;101970.03;4446100;32;20373;-80
2021/03/03 11:09:12;;;;;;;181.07;49.13;;;;;;;8.95;64.19;101964.78;4444708;32;20060;-80
2021/03/03 11:11:56;;;;;;;177.95;48.70;;;;;;;8.86;63.43;101961.53;4443449;32;20172;-79
2021/03/03 11:14:23;;;;;;;178.00;47.38;;;;;;;9.12;63.71;101966.00;4446287;32;20412;-78
2021/03/03 11:16:49;;;;;;;180.93;47.35;;;;;;;9.21;62.77;101960.81;4436964;32;20051;-79
2021/03/03 11:19:15;;;;;;;195.10;52.22;;;;;;;9.32;62.64;101965.22;4445851;32;20017;-80
2021/03/03 11:21:42;;;;;;;187.90;49.75;;;;;;;9.29;62.36;101968.81;4444644;32;20454;-79
2021/03/03 11:24:09;;;;;;;191.37;53.50;;;;;;;9.46;62.52;101968.03;4445926;32;20073;-79
2021/03/03 11:26:36;;;;;;;186.23;51.83;;;;;;;9.54;62.22;101977.25;4443974;32;20455;-79
2021/03/03 11:29:03;;;;;;;185.02;50.50;;;;;;;9.60;61.87;101970.84;4445300;32;20091;-80
2021/03/03 11:31:30;;;;;;;182.88;49.88;;;;;;;9.60;61.52;101972.84;4444879;32;20038;-81
2021/03/03 11:33:56;;;;;;;186.82;52.47;;;;;;;9.46;62.49;101968.03;4444269;32;20426;-78
2021/03/03 11:36:22;;;;;;;185.43;50.35;;;;;;;9.40;62.59;101969.66;4441717;32;20098;-80
2021/03/03 11:38:47;;;;;;;184.00;49.75;;;;;;;9.35;62.36;101963.59;4445428;32;20361;-80
2021/03/03 11:41:14;;;;;;;187.45;50.75;;;;;;;9.43;62.20;101963.22;4443812;32;20074;-79
2021/03/03 11:43:40;;;;;;;177.25;48.40;;;;;;;9.43;62.04;101957.59;4445669;32;20097;-79
2021/03/03 11:46:06;;;;;;;188.23;49.28;;;;;;;9.12;62.86;101960.38;4435395;32;20539;-79
2021/03/03 11:48:33;;;;;;;187.35;49.60;;;;;;;9.32;62.98;101955.97;4441797;32;20080;-77
2021/03/03 11:50:58;;;;;;;164.90;46.67;;;;;;;9.32;62.98;101951.16;4446449;32;20042;-77
2021/03/03 11:53:25;;;;;;;185.20;49.97;;;;;;;9.39;62.68;101951.16;4446594;32;20039;-76
2021/03/03 11:55:51;;;;;;;171.60;47.00;;;;;;;9.54;62.29;101946.34;4447216;32;20124;-78
2021/03/03 11:58:16;;;;;;;181.75;47.75;;;;;;;9.57;61.23;101946.34;4445607;32;20414;-78
2021/03/03 12:00:42;;;;;;;171.27;49.25;;;;;;;9.77;61.14;101953.16;4445901;32;20132;-77
2021/03/03 12:03:08;;;;;;;192.60;53.10;;;;;;;9.77;61.04;101950.34;4431715;32;20034;-80
2021/03/03 12:05:33;;;;;;;201.62;50.05;;;;;;;9.85;61.08;101948.34;4452102;32;20033;-78
2021/03/03 12:07:59;;;;;;;193.73;50.85;;;;;;;9.89;60.41;101958.38;4446887;32;20472;-78
2021/03/03 12:10:25;;;;;;;187.48;51.90;;;;;;;9.87;60.58;101949.53;4444599;32;20022;-77
2021/03/03 12:12:51;;;;;;;207.48;56.13;;;;;;;9.93;60.99;101944.28;4444521;32;20030;-78
2021/03/03 12:15:17;;;;;;;207.32;54.90;;;;;;;9.90;60.55;101945.91;4437618;32;20033;-78
2021/03/03 12:17:43;;;;;;;185.98;50.38;;;;;;;9.96;60.35;101954.72;4434456;32;20101;-78
2021/03/03 12:20:09;;;;;;;200.60;52.92;;;;;;;9.96;60.89;101949.09;4439643;32;20104;-76
2021/03/03 12:22:35;;;;;;;181.32;52.55;;;;;;;10.01;60.51;101943.06;4432851;32;20029;-78
2021/03/03 12:25:04;;;;;;;181.43;49.03;;;;;;;9.81;60.95;101944.69;4431443;32;20018;-77
2021/03/03 12:27:30;;;;;;;179.05;49.53;;;;;;;9.88;60.68;101944.72;4419906;32;20090;-78
2021/03/03 12:29:56;;;;;;;207.68;51.10;;;;;;;9.61;61.36;101944.31;4428153;32;20086;-78
2021/03/03 12:32:21;;;;;;;176.63;49.08;;;;;;;9.47;62.06;101935.09;4422875;32;20476;-77